sensor_id;sensor_type;location;lat;lon;timestamp;pressure;altitude;pressure_sealevel;temperature;humidity
49759;BME280;35654;46.080;11.118;2023-02-15T00:01:42;100930.53;;;4.46;60.02
49759;BME280;35654;46.080;11.118;2023-02-15T00:04:09;100930.38;;;4.35;60.09
49759;BME280;35654;46.080;11.118;2023-02-15T00:06:36;100931.63;;;4.32;60.63
49759;BME280;35654;46.080;11.118;2023-02-15T00:09:02;100928.09;;;4.32;60.47
49759;BME280;35654;46.080;11.118;2023-02-15T00:11:29;100923.88;;;4.36;60.14
49759;BME280;35654;46.080;11.118;2023-02-15T00:14:24;100931.41;;;4.34;60.31
49759;BME280;35654;46.080;11.118;2023-02-15T00:16:51;100921.22;;;4.29;60.18
49759;BME280;35654;46.080;11.118;2023-02-15T00:19:20;100921.84;;;4.25;60.65
49759;BME280;35654;46.080;11.118;2023-02-15T00:21:48;100922.88;;;4.30;60.24
49759;BME280;35654;46.080;11.118;2023-02-15T00:24:16;100927.66;;;4.35;60.44
49759;BME280;35654;46.080;11.118;2023-02-15T00:26:44;100928.94;;;4.32;60.28
49759;BME280;35654;46.080;11.118;2023-02-15T00:29:12;100923.34;;;4.21;61.22
49759;BME280;35654;46.080;11.118;2023-02-15T00:31:39;100925.44;;;4.19;60.95
49759;BME280;35654;46.080;11.118;2023-02-15T00:34:12;100925.25;;;4.13;61.01
49759;BME280;35654;46.080;11.118;2023-02-15T00:36:39;100931.31;;;4.09;61.39
49759;BME280;35654;46.080;11.118;2023-02-15T00:39:06;100930.47;;;4.08;61.04
49759;BME280;35654;46.080;11.118;2023-02-15T00:41:33;100933.19;;;4.08;60.90
49759;BME280;35654;46.080;11.118;2023-02-15T00:44:00;100919.63;;;4.08;61.39
49759;BME280;35654;46.080;11.118;2023-02-15T00:46:26;100928.59;;;4.09;60.96
49759;BME280;35654;46.080;11.118;2023-02-15T00:48:53;100927.16;;;4.06;61.39
49759;BME280;35654;46.080;11.118;2023-02-15T00:51:20;100932.59;;;4.06;61.36
49759;BME280;35654;46.080;11.118;2023-02-15T00:53:47;100924.88;;;4.10;61.37
49759;BME280;35654;46.080;11.118;2023-02-15T00:56:15;100924.88;;;4.10;60.97
49759;BME280;35654;46.080;11.118;2023-02-15T00:58:42;100914.22;;;4.08;60.65
49759;BME280;35654;46.080;11.118;2023-02-15T01:01:12;100918.59;;;4.09;60.41
49759;BME280;35654;46.080;11.118;2023-02-15T01:03:39;100916.50;;;4.11;60.29
49759;BME280;35654;46.080;11.118;2023-02-15T01:06:09;100917.34;;;4.12;60.50
49759;BME280;35654;46.080;11.118;2023-02-15T01:08:37;100926.50;;;4.11;60.01
49759;BME280;35654;46.080;11.118;2023-02-15T01:11:06;100918.69;;;3.90;61.14
49759;BME280;35654;46.080;11.118;2023-02-15T01:13:34;100916.22;;;3.82;61.65
49759;BME280;35654;46.080;11.118;2023-02-15T01:16:01;100913.50;;;3.82;61.51
49759;BME280;35654;46.080;11.118;2023-02-15T01:18:29;100918.09;;;3.75;61.86
49759;BME280;35654;46.080;11.118;2023-02-15T01:20:56;100924.16;;;3.77;61.53
49759;BME280;35654;46.080;11.118;2023-02-15T01:23:23;100914.75;;;3.79;61.10
49759;BME280;35654;46.080;11.118;2023-02-15T01:25:49;100914.09;;;3.84;61.23
49759;BME280;35654;46.080;11.118;2023-02-15T01:28:16;100914.09;;;3.84;61.30
49759;BME280;35654;46.080;11.118;2023-02-15T01:30:42;100914.34;;;3.76;62.03
49759;BME280;35654;46.080;11.118;2023-02-15T01:33:10;100914.53;;;3.74;61.78
49759;BME280;35654;46.080;11.118;2023-02-15T01:35:45;100920.38;;;3.78;61.66
49759;BME280;35654;46.080;11.118;2023-02-15T01:38:15;100915.00;;;3.71;61.78
49759;BME280;35654;46.080;11.118;2023-02-15T01:40:41;100911.88;;;3.68;61.47
49759;BME280;35654;46.080;11.118;2023-02-15T01:43:12;100908.75;;;3.71;61.40
49759;BME280;35654;46.080;11.118;2023-02-15T01:45:37;100903.09;;;3.72;61.64
49759;BME280;35654;46.080;11.118;2023-02-15T01:48:24;100904.78;;;3.67;61.70
49759;BME280;35654;46.080;11.118;2023-02-15T01:50:58;100908.16;;;3.56;62.18
49759;BME280;35654;46.080;11.118;2023-02-15T01:53:41;100900.84;;;3.56;62.23
49759;BME280;35654;46.080;11.118;2023-02-15T01:56:16;100899.81;;;3.57;61.93
49759;BME280;35654;46.080;11.118;2023-02-15T01:58:44;100902.72;;;3.49;62.42
49759;BME280;35654;46.080;11.118;2023-02-15T02:01:11;100900.06;;;3.36;62.88
49759;BME280;35654;46.080;11.118;2023-02-15T02:06:32;100894.88;;;3.21;63.19
49759;BME280;35654;46.080;11.118;2023-02-15T02:09:01;100892.59;;;3.18;63.35
49759;BME280;35654;46.080;11.118;2023-02-15T02:11:28;100889.25;;;3.16;63.58
49759;BME280;35654;46.080;11.118;2023-02-15T02:13:55;100884.25;;;3.20;63.40
49759;BME280;35654;46.080;11.118;2023-02-15T02:16:46;100886.13;;;3.26;63.07
49759;BME280;35654;46.080;11.118;2023-02-15T02:19:45;100890.06;;;3.30;62.62
49759;BME280;35654;46.080;11.118;2023-02-15T02:34:38;100889.28;;;3.10;63.65
49759;BME280;35654;46.080;11.118;2023-02-15T02:37:30;100896.34;;;3.11;63.66
49759;BME280;35654;46.080;11.118;2023-02-15T02:40:36;100888.22;;;3.11;63.82
49759;BME280;35654;46.080;11.118;2023-02-15T02:43:40;100895.72;;;3.02;63.55
49759;BME280;35654;46.080;11.118;2023-02-15T02:48:56;100876.16;;;3.00;63.73
49759;BME280;35654;46.080;11.118;2023-02-15T02:51:23;100881.78;;;3.05;63.92
49759;BME280;35654;46.080;11.118;2023-02-15T02:53:56;100883.44;;;3.06;63.48
49759;BME280;35654;46.080;11.118;2023-02-15T02:56:32;100878.03;;;3.06;63.64
49759;BME280;35654;46.080;11.118;2023-02-15T02:59:16;100878.03;;;3.06;63.60
49759;BME280;35654;46.080;11.118;2023-02-15T03:01:54;100879.06;;;3.05;63.27
49759;BME280;35654;46.080;11.118;2023-02-15T03:04:32;100878.03;;;3.06;63.21
49759;BME280;35654;46.080;11.118;2023-02-15T03:07:02;100873.47;;;3.07;63.18
49759;BME280;35654;46.080;11.118;2023-02-15T03:09:39;100883.22;;;3.08;63.39
49759;BME280;35654;46.080;11.118;2023-02-15T03:12:26;100884.28;;;3.00;63.69
49759;BME280;35654;46.080;11.118;2023-02-15T03:15:16;100877.19;;;2.99;63.40
49759;BME280;35654;46.080;11.118;2023-02-15T03:17:49;100877.59;;;2.96;63.85
49759;BME280;35654;46.080;11.118;2023-02-15T03:20:30;100875.72;;;2.97;63.55
49759;BME280;35654;46.080;11.118;2023-02-15T03:23:12;100879.09;;;2.99;63.96
49759;BME280;35654;46.080;11.118;2023-02-15T03:25:42;100879.91;;;2.99;63.80
49759;BME280;35654;46.080;11.118;2023-02-15T03:28:19;100884.69;;;2.97;64.04
49759;BME280;35654;46.080;11.118;2023-02-15T03:30:49;100887.81;;;2.94;63.71
49759;BME280;35654;46.080;11.118;2023-02-15T03:33:20;100881.16;;;2.90;64.41
49759;BME280;35654;46.080;11.118;2023-02-15T03:36:10;100893.25;;;2.87;64.18
49759;BME280;35654;46.080;11.118;2023-02-15T03:38:51;100886.56;;;2.83;64.08
49759;BME280;35654;46.080;11.118;2023-02-15T03:41:19;100883.25;;;2.81;63.99
49759;BME280;35654;46.080;11.118;2023-02-15T03:44:14;100884.50;;;2.79;64.11
49759;BME280;35654;46.080;11.118;2023-02-15T03:46:48;100887.19;;;2.72;64.00
49759;BME280;35654;46.080;11.118;2023-02-15T03:49:27;100892.16;;;2.69;64.37
49759;BME280;35654;46.080;11.118;2023-02-15T03:51:57;100891.13;;;2.63;64.61
49759;BME280;35654;46.080;11.118;2023-02-15T03:54:33;100882.19;;;2.56;64.60
49759;BME280;35654;46.080;11.118;2023-02-15T03:57:26;100882.81;;;2.58;64.14
49759;BME280;35654;46.080;11.118;2023-02-15T04:00:18;100883.00;;;2.63;64.60
49759;BME280;35654;46.080;11.118;2023-02-15T04:05:50;100887.16;;;2.66;64.68
49759;BME280;35654;46.080;11.118;2023-02-15T04:08:16;100883.44;;;2.54;64.47
49759;BME280;35654;46.080;11.118;2023-02-15T04:10:43;100891.09;;;2.44;64.43
49759;BME280;35654;46.080;11.118;2023-02-15T04:13:20;100888.81;;;2.34;65.31
49759;BME280;35654;46.080;11.118;2023-02-15T04:15:47;100884.00;;;2.36;65.47
49759;BME280;35654;46.080;11.118;2023-02-15T04:18:36;100879.88;;;2.40;65.22
49759;BME280;35654;46.080;11.118;2023-02-15T04:21:23;100884.00;;;2.36;65.15
49759;BME280;35654;46.080;11.118;2023-02-15T04:24:09;100892.94;;;2.30;65.66
49759;BME280;35654;46.080;11.118;2023-02-15T04:26:55;100880.03;;;2.25;66.12
49759;BME280;35654;46.080;11.118;2023-02-15T04:29:25;100887.53;;;2.30;65.52
49759;BME280;35654;46.080;11.118;2023-02-15T04:31:54;100887.75;;;2.35;65.75
49759;BME280;35654;46.080;11.118;2023-02-15T04:34:20;100879.44;;;2.37;65.14
49759;BME280;35654;46.080;11.118;2023-02-15T04:36:47;100881.94;;;2.38;65.23
49759;BME280;35654;46.080;11.118;2023-02-15T04:39:15;100880.06;;;2.39;65.33
49759;BME280;35654;46.080;11.118;2023-02-15T04:41:42;100884.00;;;2.29;65.33
49759;BME280;35654;46.080;11.118;2023-02-15T04:44:09;100880.22;;;2.24;65.71
49759;BME280;35654;46.080;11.118;2023-02-15T04:46:36;100874.63;;;2.25;65.77
49759;BME280;35654;46.080;11.118;2023-02-15T04:49:03;100883.16;;;2.29;65.57
49759;BME280;35654;46.080;11.118;2023-02-15T04:51:30;100873.19;;;2.29;65.46
49759;BME280;35654;46.080;11.118;2023-02-15T04:53:56;100873.19;;;2.29;65.21
49759;BME280;35654;46.080;11.118;2023-02-15T04:56:23;100874.00;;;2.30;65.46
49759;BME280;35654;46.080;11.118;2023-02-15T04:58:50;100874.63;;;2.32;65.20
49759;BME280;35654;46.080;11.118;2023-02-15T05:01:16;100878.19;;;2.32;65.31
49759;BME280;35654;46.080;11.118;2023-02-15T05:03:43;100871.13;;;2.31;65.03
49759;BME280;35654;46.080;11.118;2023-02-15T05:06:08;100869.03;;;2.27;65.22
49759;BME280;35654;46.080;11.118;2023-02-15T05:08:35;100882.75;;;2.25;65.21
49759;BME280;35654;46.080;11.118;2023-02-15T05:11:02;100878.78;;;2.21;65.27
49759;BME280;35654;46.080;11.118;2023-02-15T05:13:29;100881.47;;;2.21;65.30
49759;BME280;35654;46.080;11.118;2023-02-15T05:15:55;100879.41;;;2.17;65.57
49759;BME280;35654;46.080;11.118;2023-02-15T05:18:22;100882.50;;;2.14;65.42
49759;BME280;35654;46.080;11.118;2023-02-15T05:20:49;100882.28;;;2.09;65.61
49759;BME280;35654;46.080;11.118;2023-02-15T05:23:16;100884.78;;;2.10;65.28
49759;BME280;35654;46.080;11.118;2023-02-15T05:25:46;100887.91;;;2.14;65.59
49759;BME280;35654;46.080;11.118;2023-02-15T05:28:31;100889.78;;;2.13;65.20
49759;BME280;35654;46.080;11.118;2023-02-15T05:31:04;100891.63;;;2.06;65.94
49759;BME280;35654;46.080;11.118;2023-02-15T05:33:31;100891.63;;;2.06;65.51
49759;BME280;35654;46.080;11.118;2023-02-15T05:36:02;100894.56;;;2.11;65.97
49759;BME280;35654;46.080;11.118;2023-02-15T05:38:29;100897.88;;;2.13;65.71
49759;BME280;35654;46.080;11.118;2023-02-15T05:40:57;100900.41;;;2.15;65.94
49759;BME280;35654;46.080;11.118;2023-02-15T05:43:24;100897.69;;;2.15;65.81
49759;BME280;35654;46.080;11.118;2023-02-15T05:45:52;100903.28;;;2.13;65.82
49759;BME280;35654;46.080;11.118;2023-02-15T05:48:22;100896.84;;;2.14;65.56
49759;BME280;35654;46.080;11.118;2023-02-15T05:51:05;100900.38;;;2.08;65.69
49759;BME280;35654;46.080;11.118;2023-02-15T05:53:33;100894.09;;;2.01;66.27
49759;BME280;35654;46.080;11.118;2023-02-15T05:56:04;100896.63;;;2.09;65.95
49759;BME280;35654;46.080;11.118;2023-02-15T05:58:33;100896.81;;;2.08;65.82
49759;BME280;35654;46.080;11.118;2023-02-15T06:01:11;100899.13;;;2.11;65.99
49759;BME280;35654;46.080;11.118;2023-02-15T06:03:39;100904.31;;;2.12;65.51
49759;BME280;35654;46.080;11.118;2023-02-15T06:06:07;100910.16;;;2.16;65.50
49759;BME280;35654;46.080;11.118;2023-02-15T06:08:34;100893.94;;;2.16;65.86
49759;BME280;35654;46.080;11.118;2023-02-15T06:11:01;100905.81;;;2.28;66.67
49759;BME280;35654;46.080;11.118;2023-02-15T06:13:28;100901.44;;;2.27;65.52
49759;BME280;35654;46.080;11.118;2023-02-15T06:15:55;100909.13;;;2.23;65.72
49759;BME280;35654;46.080;11.118;2023-02-15T06:18:21;100908.28;;;2.16;64.69
49759;BME280;35654;46.080;11.118;2023-02-15T06:20:49;100917.41;;;2.15;64.69
49759;BME280;35654;46.080;11.118;2023-02-15T06:23:15;100914.97;;;2.27;65.77
49759;BME280;35654;46.080;11.118;2023-02-15T06:25:42;100919.75;;;2.25;64.42
49759;BME280;35654;46.080;11.118;2023-02-15T06:28:10;100927.84;;;2.25;64.71
49759;BME280;35654;46.080;11.118;2023-02-15T06:30:36;100923.28;;;2.25;64.66
49759;BME280;35654;46.080;11.118;2023-02-15T06:33:03;100923.06;;;2.20;64.30
49759;BME280;35654;46.080;11.118;2023-02-15T06:35:30;100919.53;;;2.20;64.59
49759;BME280;35654;46.080;11.118;2023-02-15T06:37:57;100923.88;;;2.21;64.54
49759;BME280;35654;46.080;11.118;2023-02-15T06:40:24;100920.78;;;2.24;64.56
49759;BME280;35654;46.080;11.118;2023-02-15T06:42:49;100918.91;;;2.24;64.32
49759;BME280;35654;46.080;11.118;2023-02-15T06:45:14;100931.00;;;2.28;64.50
49759;BME280;35654;46.080;11.118;2023-02-15T06:47:40;100929.31;;;2.27;64.77
49759;BME280;35654;46.080;11.118;2023-02-15T06:50:06;100928.03;;;2.23;64.28
49759;BME280;35654;46.080;11.118;2023-02-15T06:52:32;100925.56;;;2.22;64.16
49759;BME280;35654;46.080;11.118;2023-02-15T06:54:57;100926.81;;;2.26;63.82
49759;BME280;35654;46.080;11.118;2023-02-15T06:57:24;100930.78;;;2.30;64.04
49759;BME280;35654;46.080;11.118;2023-02-15T06:59:51;100928.72;;;2.39;63.67
49759;BME280;35654;46.080;11.118;2023-02-15T07:02:17;100924.78;;;2.41;64.11
49759;BME280;35654;46.080;11.118;2023-02-15T07:04:43;100928.53;;;2.47;63.74
49759;BME280;35654;46.080;11.118;2023-02-15T07:07:11;100927.09;;;2.51;63.65
49759;BME280;35654;46.080;11.118;2023-02-15T07:09:37;100926.47;;;2.55;63.50
49759;BME280;35654;46.080;11.118;2023-02-15T07:12:03;100926.03;;;2.52;63.54
49759;BME280;35654;46.080;11.118;2023-02-15T07:14:48;100925.63;;;2.55;63.46
49759;BME280;35654;46.080;11.118;2023-02-15T07:17:15;100918.19;;;2.57;63.31
49759;BME280;35654;46.080;11.118;2023-02-15T07:19:43;100922.34;;;2.59;63.12
49759;BME280;35654;46.080;11.118;2023-02-15T07:22:09;100935.44;;;2.62;63.32
49759;BME280;35654;46.080;11.118;2023-02-15T07:24:35;100930.88;;;2.69;62.79
49759;BME280;35654;46.080;11.118;2023-02-15T07:27:00;100930.88;;;2.76;62.75
49759;BME280;35654;46.080;11.118;2023-02-15T07:29:25;100932.53;;;2.77;62.87
49759;BME280;35654;46.080;11.118;2023-02-15T07:31:52;100924.00;;;2.80;62.38
49759;BME280;35654;46.080;11.118;2023-02-15T07:34:19;100925.69;;;2.81;62.36
49759;BME280;35654;46.080;11.118;2023-02-15T07:36:46;100921.53;;;2.91;62.14
49759;BME280;35654;46.080;11.118;2023-02-15T07:39:12;100916.94;;;3.05;61.79
49759;BME280;35654;46.080;11.118;2023-02-15T07:41:37;100916.50;;;3.21;61.46
49759;BME280;35654;46.080;11.118;2023-02-15T07:44:03;100915.47;;;3.35;61.01
49759;BME280;35654;46.080;11.118;2023-02-15T07:46:28;100914.22;;;3.51;60.76
49759;BME280;35654;46.080;11.118;2023-02-15T07:48:55;100915.84;;;3.65;60.12
49759;BME280;35654;46.080;11.118;2023-02-15T07:51:21;100916.81;;;3.77;59.82
49759;BME280;35654;46.080;11.118;2023-02-15T07:53:47;100909.47;;;3.91;59.75
49759;BME280;35654;46.080;11.118;2023-02-15T07:56:14;100921.94;;;4.05;58.57
49759;BME280;35654;46.080;11.118;2023-02-15T07:58:41;100914.19;;;4.15;57.60
49759;BME280;35654;46.080;11.118;2023-02-15T08:03:48;100910.28;;;4.42;55.83
49759;BME280;35654;46.080;11.118;2023-02-15T08:06:13;100904.19;;;4.53;55.61
49759;BME280;35654;46.080;11.118;2023-02-15T08:08:41;100897.63;;;4.67;55.08
49759;BME280;35654;46.080;11.118;2023-02-15T08:11:26;100898.34;;;4.81;54.16
49759;BME280;35654;46.080;11.118;2023-02-15T08:16:50;100901.50;;;5.03;52.90
49759;BME280;35654;46.080;11.118;2023-02-15T08:19:22;100894.09;;;5.16;52.17
49759;BME280;35654;46.080;11.118;2023-02-15T08:22:12;100898.13;;;5.32;51.70
49759;BME280;35654;46.080;11.118;2023-02-15T08:24:38;100896.16;;;5.39;51.25
49759;BME280;35654;46.080;11.118;2023-02-15T08:27:06;100896.50;;;5.49;50.99
49759;BME280;35654;46.080;11.118;2023-02-15T08:29:35;100892.59;;;5.63;51.09
49759;BME280;35654;46.080;11.118;2023-02-15T08:32:05;100890.31;;;5.78;50.89
49759;BME280;35654;46.080;11.118;2023-02-15T08:34:38;100890.22;;;5.92;50.52
49759;BME280;35654;46.080;11.118;2023-02-15T08:37:04;100885.88;;;6.02;49.80
49759;BME280;35654;46.080;11.118;2023-02-15T08:39:32;100884.75;;;6.10;48.99
49759;BME280;35654;46.080;11.118;2023-02-15T08:41:58;100887.91;;;6.25;48.40
49759;BME280;35654;46.080;11.118;2023-02-15T08:44:25;100879.78;;;6.36;47.99
49759;BME280;35654;46.080;11.118;2023-02-15T08:46:52;100880.06;;;6.47;47.31
49759;BME280;35654;46.080;11.118;2023-02-15T08:49:20;100876.06;;;6.61;47.15
49759;BME280;35654;46.080;11.118;2023-02-15T08:51:48;100878.84;;;6.72;46.37
49759;BME280;35654;46.080;11.118;2023-02-15T08:54:17;100878.75;;;6.90;46.47
49759;BME280;35654;46.080;11.118;2023-02-15T08:56:44;100874.72;;;7.04;45.66
49759;BME280;35654;46.080;11.118;2023-02-15T08:59:17;100866.31;;;7.18;45.27
49759;BME280;35654;46.080;11.118;2023-02-15T09:01:44;100864.31;;;7.25;44.61
49759;BME280;35654;46.080;11.118;2023-02-15T09:04:11;100872.25;;;7.38;44.63
49759;BME280;35654;46.080;11.118;2023-02-15T09:06:40;100864.44;;;7.53;44.20
49759;BME280;35654;46.080;11.118;2023-02-15T09:09:08;100857.88;;;7.66;43.95
49759;BME280;35654;46.080;11.118;2023-02-15T09:11:38;100857.03;;;7.77;43.77
49759;BME280;35654;46.080;11.118;2023-02-15T09:14:14;100858.91;;;7.88;43.37
49759;BME280;35654;46.080;11.118;2023-02-15T09:16:43;100851.88;;;8.03;43.05
49759;BME280;35654;46.080;11.118;2023-02-15T09:19:19;100853.75;;;8.14;42.77
49759;BME280;35654;46.080;11.118;2023-02-15T09:21:46;100849.69;;;8.29;42.37
49759;BME280;35654;46.080;11.118;2023-02-15T09:24:14;100847.41;;;8.37;42.31
49759;BME280;35654;46.080;11.118;2023-02-15T09:26:43;100845.75;;;8.53;41.44
49759;BME280;35654;46.080;11.118;2023-02-15T09:29:11;100845.44;;;8.66;41.53
49759;BME280;35654;46.080;11.118;2023-02-15T09:31:41;100843.22;;;8.79;41.53
49759;BME280;35654;46.080;11.118;2023-02-15T09:34:11;100833.63;;;8.94;41.46
49759;BME280;35654;46.080;11.118;2023-02-15T09:36:39;100827.34;;;9.10;40.87
49759;BME280;35654;46.080;11.118;2023-02-15T09:39:13;100831.88;;;9.21;40.16
49759;BME280;35654;46.080;11.118;2023-02-15T09:48:16;100823.84;;;9.53;39.13
49759;BME280;35654;46.080;11.118;2023-02-15T09:53:47;100825.25;;;9.55;38.67
49759;BME280;35654;46.080;11.118;2023-02-15T09:56:39;100813.75;;;9.75;38.72
49759;BME280;35654;46.080;11.118;2023-02-15T09:59:54;100812.91;;;9.74;37.64
49759;BME280;35654;46.080;11.118;2023-02-15T10:08:12;100808.06;;;10.25;36.76
49759;BME280;35654;46.080;11.118;2023-02-15T10:16:33;100787.69;;;18.90;24.81
49759;BME280;35654;46.080;11.118;2023-02-15T10:26:04;100771.50;;;24.11;18.29
49759;BME280;35654;46.080;11.118;2023-02-15T10:28:19;100763.19;;;24.27;17.94
49759;BME280;35654;46.080;11.118;2023-02-15T10:30:54;100761.69;;;23.93;17.86
49759;BME280;35654;46.080;11.118;2023-02-15T10:33:43;100753.31;;;25.56;16.69
49759;BME280;35654;46.080;11.118;2023-02-15T10:40:07;100738.50;;;26.41;15.58
49759;BME280;35654;46.080;11.118;2023-02-15T10:46:00;100733.19;;;26.93;15.11
49759;BME280;35654;46.080;11.118;2023-02-15T10:48:19;100733.31;;;26.43;15.55
49759;BME280;35654;46.080;11.118;2023-02-15T10:51:05;100720.38;;;26.77;14.96
49759;BME280;35654;46.080;11.118;2023-02-15T10:56:27;100711.59;;;26.78;15.06
49759;BME280;35654;46.080;11.118;2023-02-15T11:03:14;100694.66;;;27.62;14.63
49759;BME280;35654;46.080;11.118;2023-02-15T11:05:26;100693.00;;;27.84;14.19
49759;BME280;35654;46.080;11.118;2023-02-15T11:07:59;100677.38;;;26.53;15.02
49759;BME280;35654;46.080;11.118;2023-02-15T11:10:39;100676.78;;;27.28;14.53
49759;BME280;35654;46.080;11.118;2023-02-15T11:13:14;100669.56;;;28.02;14.04
49759;BME280;35654;46.080;11.118;2023-02-15T11:16:16;100658.34;;;28.36;13.91
49759;BME280;35654;46.080;11.118;2023-02-15T11:19:26;100648.63;;;27.73;13.98
49759;BME280;35654;46.080;11.118;2023-02-15T11:21:59;100645.06;;;28.66;13.75
49759;BME280;35654;46.080;11.118;2023-02-15T11:24:33;100635.69;;;27.69;13.93
49759;BME280;35654;46.080;11.118;2023-02-15T11:27:25;100640.28;;;27.32;14.22
49759;BME280;35654;46.080;11.118;2023-02-15T11:32:39;100629.72;;;28.30;13.62
49759;BME280;35654;46.080;11.118;2023-02-15T11:35:36;100611.88;;;28.52;12.99
49759;BME280;35654;46.080;11.118;2023-02-15T11:38:24;100601.78;;;28.51;13.64
49759;BME280;35654;46.080;11.118;2023-02-15T11:41:13;100608.78;;;29.52;12.62
49759;BME280;35654;46.080;11.118;2023-02-15T11:43:48;100593.22;;;30.73;12.16
49759;BME280;35654;46.080;11.118;2023-02-15T11:46:17;100585.88;;;29.68;12.26
49759;BME280;35654;46.080;11.118;2023-02-15T11:48:45;100584.25;;;29.63;12.64
49759;BME280;35654;46.080;11.118;2023-02-15T11:51:22;100577.25;;;30.01;12.32
49759;BME280;35654;46.080;11.118;2023-02-15T11:53:49;100577.03;;;29.11;12.96
49759;BME280;35654;46.080;11.118;2023-02-15T11:56:25;100582.88;;;28.52;13.16
49759;BME280;35654;46.080;11.118;2023-02-15T11:59:31;100562.41;;;28.58;13.13
49759;BME280;35654;46.080;11.118;2023-02-15T12:01:59;100559.38;;;28.74;13.28
49759;BME280;35654;46.080;11.118;2023-02-15T12:04:40;100561.59;;;27.61;13.65
49759;BME280;35654;46.080;11.118;2023-02-15T12:07:17;100543.56;;;27.96;13.68
49759;BME280;35654;46.080;11.118;2023-02-15T12:12:28;100536.13;;;28.87;13.16
49759;BME280;35654;46.080;11.118;2023-02-15T12:14:59;100529.97;;;29.84;12.51
49759;BME280;35654;46.080;11.118;2023-02-15T12:17:28;100532.94;;;28.89;13.04
49759;BME280;35654;46.080;11.118;2023-02-15T12:20:00;100528.09;;;30.34;12.26
49759;BME280;35654;46.080;11.118;2023-02-15T12:22:36;100532.13;;;30.29;12.18
49759;BME280;35654;46.080;11.118;2023-02-15T12:25:04;100507.53;;;31.57;11.50
49759;BME280;35654;46.080;11.118;2023-02-15T12:27:45;100511.91;;;31.83;11.10
49759;BME280;35654;46.080;11.118;2023-02-15T12:30:31;100508.69;;;31.70;11.35
49759;BME280;35654;46.080;11.118;2023-02-15T12:33:18;100492.41;;;29.15;12.69
49759;BME280;35654;46.080;11.118;2023-02-15T12:35:57;100491.75;;;29.32;12.34
49759;BME280;35654;46.080;11.118;2023-02-15T12:38:27;100479.94;;;29.81;12.17
49759;BME280;35654;46.080;11.118;2023-02-15T12:43:34;100471.63;;;30.44;12.28
49759;BME280;35654;46.080;11.118;2023-02-15T12:46:25;100467.19;;;30.47;11.92
49759;BME280;35654;46.080;11.118;2023-02-15T12:49:18;100458.91;;;29.03;12.67
49759;BME280;35654;46.080;11.118;2023-02-15T12:52:40;100461.88;;;31.37;11.40
49759;BME280;35654;46.080;11.118;2023-02-15T12:54:43;100462.31;;;31.14;11.45
49759;BME280;35654;46.080;11.118;2023-02-15T12:57:33;100449.72;;;31.37;11.17
49759;BME280;35654;46.080;11.118;2023-02-15T13:02:50;100444.56;;;30.89;11.42
49759;BME280;35654;46.080;11.118;2023-02-15T13:08:12;100430.03;;;32.02;10.84
49759;BME280;35654;46.080;11.118;2023-02-15T13:10:53;100427.91;;;31.34;10.83
49759;BME280;35654;46.080;11.118;2023-02-15T13:13:27;100424.38;;;30.98;11.52
49759;BME280;35654;46.080;11.118;2023-02-15T13:16:10;100417.88;;;30.27;11.82
49759;BME280;35654;46.080;11.118;2023-02-15T13:18:45;100412.47;;;32.28;10.45
49759;BME280;35654;46.080;11.118;2023-02-15T13:21:27;100409.59;;;33.55;9.97
49759;BME280;35654;46.080;11.118;2023-02-15T13:24:01;100396.97;;;32.44;10.66
49759;BME280;35654;46.080;11.118;2023-02-15T13:26:32;100410.47;;;31.56;11.21
49759;BME280;35654;46.080;11.118;2023-02-15T13:29:17;100398.16;;;32.43;10.35
49759;BME280;35654;46.080;11.118;2023-02-15T13:31:46;100395.72;;;33.64;9.64
49759;BME280;35654;46.080;11.118;2023-02-15T13:34:25;100393.41;;;34.35;9.19
49759;BME280;35654;46.080;11.118;2023-02-15T13:42:22;100387.22;;;30.92;11.07
49759;BME280;35654;46.080;11.118;2023-02-15T13:59:06;100378.34;;;30.34;11.46
49759;BME280;35654;46.080;11.118;2023-02-15T14:02:42;100375.88;;;30.04;11.66
49759;BME280;35654;46.080;11.118;2023-02-15T14:08:05;100370.13;;;31.28;10.90
49759;BME280;35654;46.080;11.118;2023-02-15T14:10:44;100359.38;;;30.55;10.97
49759;BME280;35654;46.080;11.118;2023-02-15T14:16:39;100362.09;;;31.08;10.77
49759;BME280;35654;46.080;11.118;2023-02-15T14:19:47;100362.34;;;31.53;10.32
49759;BME280;35654;46.080;11.118;2023-02-15T14:22:31;100354.19;;;33.39;9.31
49759;BME280;35654;46.080;11.118;2023-02-15T14:28:43;100353.75;;;32.29;9.77
49759;BME280;35654;46.080;11.118;2023-02-15T14:31:07;100353.22;;;29.62;11.46
49759;BME280;35654;46.080;11.118;2023-02-15T14:33:40;100350.38;;;29.65;11.40
49759;BME280;35654;46.080;11.118;2023-02-15T14:36:15;100353.66;;;29.78;11.72
49759;BME280;35654;46.080;11.118;2023-02-15T14:41:39;100345.25;;;30.31;11.09
49759;BME280;35654;46.080;11.118;2023-02-15T14:44:37;100340.66;;;32.42;10.19
49759;BME280;35654;46.080;11.118;2023-02-15T14:47:22;100348.72;;;33.25;9.61
49759;BME280;35654;46.080;11.118;2023-02-15T14:49:51;100344.44;;;32.73;10.10
49759;BME280;35654;46.080;11.118;2023-02-15T14:52:18;100347.25;;;32.32;10.37
49759;BME280;35654;46.080;11.118;2023-02-15T15:02:42;100333.84;;;31.81;10.73
49759;BME280;35654;46.080;11.118;2023-02-15T15:05:32;100333.66;;;29.11;12.05
49759;BME280;35654;46.080;11.118;2023-02-15T15:08:02;100334.00;;;26.63;14.26
49759;BME280;35654;46.080;11.118;2023-02-15T15:10:42;100337.63;;;24.23;16.38
49759;BME280;35654;46.080;11.118;2023-02-15T15:13:38;100341.19;;;20.54;19.58
49759;BME280;35654;46.080;11.118;2023-02-15T15:19:09;100344.69;;;18.46;22.57
49759;BME280;35654;46.080;11.118;2023-02-15T15:21:55;100344.00;;;18.24;22.91
49759;BME280;35654;46.080;11.118;2023-02-15T15:33:11;100345.66;;;16.11;26.46